Time;durP1;ratioP1;P1;durP2;ratioP2;P2;SDS_P1;SDS_P2;PMS_P1;PMS_P2;Temp;Humidity;BMP_temperature;BMP_pressure;BME280_temperature;BME280_humidity;BME280_pressure;Samples;Min_cycle;Max_cycle;Signal;HPM_P1;HPM_P2
2022/01/08 00:00:53;;;;;;;14.85;7.00;;;;;;;1.93;100.00;98415.03;5075200;28;20025;-89
2022/01/08 00:03:19;;;;;;;18.20;6.88;;;;;;;2.01;100.00;98411.66;5060673;28;20032;-91
2022/01/08 00:05:44;;;;;;;16.50;6.97;;;;;;;2.19;100.00;98421.94;5052088;28;20032;-92
2022/01/08 00:08:10;;;;;;;18.98;6.65;;;;;;;2.26;100.00;98404.00;5054466;28;20060;-88
2022/01/08 00:10:35;;;;;;;16.30;6.70;;;;;;;2.21;100.00;98393.28;5050634;28;20033;-88
2022/01/08 00:13:03;;;;;;;16.75;8.05;;;;;;;2.32;100.00;98405.16;5051873;28;20014;-89
2022/01/08 00:15:29;;;;;;;18.30;8.20;;;;;;;2.19;100.00;98370.13;5071374;28;20042;-88
2022/01/08 00:17:54;;;;;;;16.17;7.65;;;;;;;2.20;100.00;98381.31;5058601;28;20029;-89
2022/01/08 00:20:20;;;;;;;20.60;7.65;;;;;;;2.25;100.00;98389.44;5032331;28;20032;-88
2022/01/08 00:22:51;;;;;;;13.35;6.50;;;;;;;2.34;100.00;98411.78;5053168;28;20094;-87
2022/01/08 00:25:17;;;;;;;18.38;7.70;;;;;;;2.27;100.00;98388.31;5048291;28;20028;-89
2022/01/08 00:27:42;;;;;;;15.90;7.97;;;;;;;2.24;100.00;98382.63;5054570;28;20030;-87
2022/01/08 00:30:08;;;;;;;21.50;7.22;;;;;;;2.31;100.00;98381.03;5048443;28;20413;-85
2022/01/08 00:32:34;;;;;;;17.17;7.25;;;;;;;2.34;100.00;98377.31;5048587;28;20029;-89
2022/01/08 00:35:01;;;;;;;15.25;7.05;;;;;;;2.41;100.00;98394.66;5054092;28;20066;-88
2022/01/08 00:37:26;;;;;;;15.50;6.35;;;;;;;2.45;100.00;98381.38;5049214;28;20025;-87
2022/01/08 00:39:52;;;;;;;20.27;7.50;;;;;;;2.43;100.00;98374.59;5051252;28;20032;-86
2022/01/08 00:42:18;;;;;;;19.40;6.65;;;;;;;2.46;100.00;98375.22;5046851;28;20029;-89
2022/01/08 00:44:46;;;;;;;20.10;6.75;;;;;;;2.33;100.00;98368.72;5051847;28;20029;-88
2022/01/08 00:47:12;;;;;;;17.33;7.85;;;;;;;2.30;100.00;98361.25;5051801;28;20042;-86
2022/01/08 00:49:37;;;;;;;23.48;6.45;;;;;;;2.42;100.00;98369.56;5048489;28;20134;-89
2022/01/08 00:52:05;;;;;;;13.40;5.90;;;;;;;2.39;100.00;98351.75;5053276;28;20096;-88
2022/01/08 00:54:31;;;;;;;21.27;6.07;;;;;;;2.46;100.00;98354.50;5053714;28;20029;-88
2022/01/08 00:56:57;;;;;;;13.93;5.80;;;;;;;2.46;100.00;98344.16;5055448;28;20025;-87
2022/01/08 00:59:23;;;;;;;16.95;5.38;;;;;;;2.44;100.00;98341.72;5054058;28;20035;-89
2022/01/08 01:01:49;;;;;;;13.18;5.20;;;;;;;2.56;100.00;98344.81;5032990;28;20029;-86
2022/01/08 01:04:14;;;;;;;18.17;5.60;;;;;;;2.65;100.00;98348.22;5034620;28;20075;-88
2022/01/08 01:06:40;;;;;;;18.73;5.43;;;;;;;2.68;100.00;98346.13;5055947;28;20094;-90
2022/01/08 01:09:06;;;;;;;14.40;4.32;;;;;;;2.53;100.00;98319.22;5064043;28;20067;-88
2022/01/08 01:11:31;;;;;;;15.73;4.07;;;;;;;2.50;100.00;98315.19;5075880;28;20050;-88
2022/01/08 01:13:57;;;;;;;16.67;4.03;;;;;;;2.50;100.00;98319.53;5074622;28;20032;-89
2022/01/08 01:16:23;;;;;;;11.23;4.18;;;;;;;2.57;100.00;98328.31;5077792;28;20039;-89
2022/01/08 01:18:49;;;;;;;11.48;3.50;;;;;;;2.52;100.00;98302.06;5070340;28;20111;-87
2022/01/08 01:21:15;;;;;;;19.63;4.20;;;;;;;2.60;100.00;98301.25;5075275;28;20081;-87
2022/01/08 01:23:43;;;;;;;14.63;3.70;;;;;;;2.70;100.00;98318.25;5076584;28;20028;-89
2022/01/08 01:26:14;;;;;;;15.13;3.67;;;;;;;2.71;100.00;98317.28;5075769;28;20482;-86
2022/01/08 01:28:50;;;;;;;14.20;3.45;;;;;;;2.64;100.00;98299.94;5061102;28;20044;-88
2022/01/08 01:47:16;;;;;;;17.55;4.72;;;;;;;2.66;100.00;98293.66;5089469;28;20127;-88
2022/01/08 01:49:44;;;;;;;12.50;5.13;;;;;;;2.56;100.00;98270.50;5075391;28;20059;-88
2022/01/08 01:52:13;;;;;;;17.02;5.75;;;;;;;2.65;100.00;98280.84;5081727;28;20032;-87
2022/01/08 01:54:42;;;;;;;12.68;3.67;;;;;;;2.69;100.00;98275.19;5060282;28;20087;-90
2022/01/08 01:57:12;;;;;;;13.82;4.43;;;;;;;2.42;100.00;98279.72;5079459;28;20172;-89
2022/01/08 01:59:39;;;;;;;12.15;3.55;;;;;;;2.31;100.00;98266.28;5070626;28;20041;-90
2022/01/08 02:02:05;;;;;;;6.68;3.67;;;;;;;2.28;100.00;98259.63;5069731;28;20059;-89
2022/01/08 02:04:31;;;;;;;10.23;4.10;;;;;;;2.22;100.00;98255.88;5087628;28;20091;-89
2022/01/08 02:06:57;;;;;;;8.38;3.50;;;;;;;2.20;100.00;98251.84;5060473;28;20440;-89
2022/01/08 02:09:24;;;;;;;10.55;3.83;;;;;;;2.35;100.00;98278.72;5056463;28;20510;-89
2022/01/08 02:12:02;;;;;;;16.25;3.95;;;;;;;2.31;100.00;98253.31;5054143;28;20033;-90
2022/01/08 02:14:35;;;;;;;6.80;3.03;;;;;;;2.50;100.00;98267.72;5061243;28;20031;-89
2022/01/08 02:17:03;;;;;;;15.10;3.10;;;;;;;2.58;100.00;98275.53;5073005;28;20028;-87
2022/01/08 02:19:29;;;;;;;14.68;4.03;;;;;;;2.62;100.00;98276.81;5051060;28;20119;-88
2022/01/08 02:21:58;;;;;;;9.70;3.15;;;;;;;2.60;100.00;98268.38;5073333;28;20059;-89
2022/01/08 02:24:25;;;;;;;10.88;3.25;;;;;;;2.51;100.00;98243.44;5071121;28;20032;-89
2022/01/08 02:26:51;;;;;;;7.68;3.10;;;;;;;2.57;100.00;98243.59;5063782;28;20040;-89
2022/01/08 02:29:19;;;;;;;8.93;2.72;;;;;;;2.33;100.00;98210.72;5059644;28;20113;-90
2022/01/08 02:32:00;;;;;;;9.25;2.90;;;;;;;2.40;100.00;98240.22;5052989;28;20072;-91
2022/01/08 02:34:27;;;;;;;11.25;3.58;;;;;;;2.45;100.00;98244.09;5072669;28;20044;-89
2022/01/08 02:36:54;;;;;;;8.60;2.60;;;;;;;2.36;100.00;98230.34;5060238;28;20085;-89
2022/01/08 02:39:20;;;;;;;10.02;3.08;;;;;;;2.25;100.00;98221.91;5084597;28;20086;-88
2022/01/08 02:41:46;;;;;;;8.48;3.20;;;;;;;2.23;100.00;98225.63;5078395;28;20029;-89
2022/01/08 02:44:12;;;;;;;11.73;3.15;;;;;;;2.18;100.00;98207.97;5084519;28;20470;-88
2022/01/08 02:46:41;;;;;;;12.27;3.65;;;;;;;1.89;100.00;98167.03;5058601;28;20032;-89
2022/01/08 02:49:08;;;;;;;12.20;3.47;;;;;;;1.93;100.00;98184.66;5068498;28;20025;-87
2022/01/08 02:51:35;;;;;;;14.90;3.92;;;;;;;1.91;100.00;98184.03;5062691;28;20039;-86
2022/01/08 02:54:02;;;;;;;9.68;3.45;;;;;;;1.79;100.00;98168.00;5064990;28;20039;-86
2022/01/08 02:56:28;;;;;;;10.73;3.63;;;;;;;1.92;100.00;98182.22;5075653;28;20642;-86
2022/01/08 02:58:54;;;;;;;14.65;3.90;;;;;;;1.76;100.00;98159.72;5083793;28;20031;-88
2022/01/08 03:01:21;;;;;;;14.15;3.70;;;;;;;1.84;100.00;98167.50;5075185;28;20040;-87
2022/01/08 03:03:46;;;;;;;10.98;3.20;;;;;;;1.82;100.00;98161.69;5059702;28;20028;-86
2022/01/08 03:06:12;;;;;;;15.05;3.70;;;;;;;1.79;100.00;98152.47;5074245;28;20425;-86
2022/01/08 03:08:37;;;;;;;14.57;3.22;;;;;;;1.77;100.00;98146.66;5062022;28;20040;-85
2022/01/08 03:11:03;;;;;;;11.32;3.25;;;;;;;1.82;100.00;98140.97;5073646;28;20025;-85
2022/01/08 03:13:28;;;;;;;9.40;3.78;;;;;;;1.75;100.00;98129.66;5074448;28;20035;-85
2022/01/08 03:15:54;;;;;;;14.63;3.53;;;;;;;1.77;100.00;98122.53;5073820;28;20017;-85
2022/01/08 03:18:19;;;;;;;10.93;3.63;;;;;;;1.76;100.00;98111.38;5048838;28;20397;-86
2022/01/08 03:20:59;;;;;;;13.00;3.33;;;;;;;1.84;100.00;98110.56;5074634;28;20032;-86
2022/01/08 03:23:34;;;;;;;9.88;3.08;;;;;;;1.75;100.00;98086.47;5058495;28;20048;-85
2022/01/08 03:25:59;;;;;;;17.20;3.42;;;;;;;1.78;100.00;98086.16;5064802;28;20397;-85
2022/01/08 03:28:25;;;;;;;11.68;3.55;;;;;;;1.68;100.00;98073.38;5073808;28;20021;-86
2022/01/08 03:30:51;;;;;;;12.50;3.22;;;;;;;1.68;100.00;98073.38;5066920;28;20541;-86
2022/01/08 03:33:16;;;;;;;6.80;3.35;;;;;;;1.61;100.00;98050.91;5068967;28;20025;-86
2022/01/08 03:35:42;;;;;;;12.75;4.22;;;;;;;1.53;100.00;98054.31;5065580;28;20401;-86
2022/01/08 03:38:08;;;;;;;9.98;3.35;;;;;;;1.59;100.00;98058.03;5078055;28;20036;-86
2022/01/08 03:40:33;;;;;;;12.07;3.58;;;;;;;1.50;100.00;98024.38;5065485;28;20746;-87
2022/01/08 03:42:59;;;;;;;13.93;3.45;;;;;;;1.49;100.00;98021.97;5066699;28;20033;-85
2022/01/08 03:45:25;;;;;;;13.20;3.17;;;;;;;1.73;100.00;98059.16;5048071;28;20075;-85
2022/01/08 03:50:16;;;;;;;12.98;2.45;;;;;;;1.70;100.00;98034.41;5075262;28;20044;-85
2022/01/08 03:52:45;;;;;;;7.80;2.17;;;;;;;1.88;100.00;98021.31;5076141;28;20028;-87
2022/01/08 03:55:12;;;;;;;12.40;2.63;;;;;;;2.00;100.00;98022.56;5067005;28;20033;-86
2022/01/08 03:57:38;;;;;;;8.05;2.42;;;;;;;2.10;100.00;98029.38;5080106;28;20109;-86
2022/01/08 04:00:04;;;;;;;8.93;2.55;;;;;;;2.14;100.00;98020.28;5074203;28;20021;-86
2022/01/08 04:02:30;;;;;;;8.15;2.20;;;;;;;2.13;100.00;98003.94;5052028;28;20024;-86
2022/01/08 04:04:56;;;;;;;12.85;2.53;;;;;;;2.11;100.00;97990.34;5064985;28;20040;-86
2022/01/08 04:07:21;;;;;;;14.05;2.38;;;;;;;2.17;100.00;97988.88;5046238;28;20116;-85
2022/01/08 04:09:47;;;;;;;7.38;2.28;;;;;;;2.33;100.00;97988.00;5075942;28;20036;-86
2022/01/08 04:12:17;;;;;;;8.63;2.20;;;;;;;2.36;100.00;97971.34;5075121;28;20090;-86
2022/01/08 04:15:02;;;;;;;10.07;2.10;;;;;;;2.34;100.00;97968.91;5057249;28;20161;-85
2022/01/08 04:17:27;;;;;;;10.15;2.38;;;;;;;2.51;100.00;97974.84;5055935;28;20058;-84
2022/01/08 04:19:55;;;;;;;16.75;3.80;;;;;;;2.33;100.00;97950.97;5042208;28;20024;-85
2022/01/08 04:22:23;;;;;;;9.23;2.65;;;;;;;2.34;100.00;97963.72;5079136;28;20040;-83
2022/01/08 04:24:49;;;;;;;10.93;2.60;;;;;;;2.28;100.00;97964.41;5074917;28;20032;-86
2022/01/08 04:27:15;;;;;;;7.05;2.65;;;;;;;2.29;100.00;97945.31;5068017;28;20040;-86
2022/01/08 04:29:42;;;;;;;13.30;2.38;;;;;;;2.31;100.00;97929.63;5077580;28;20032;-86
2022/01/08 04:32:08;;;;;;;11.85;2.70;;;;;;;2.43;100.00;97936.84;5069074;28;20036;-87
2022/01/08 04:34:34;;;;;;;11.98;2.90;;;;;;;2.45;100.00;97938.44;5052599;28;20027;-87
2022/01/08 04:37:00;;;;;;;7.90;2.35;;;;;;;2.41;100.00;97920.66;5078860;28;20115;-87
2022/01/08 04:39:27;;;;;;;14.45;3.30;;;;;;;2.33;100.00;97907.75;5078355;28;20093;-84
2022/01/08 04:41:53;;;;;;;10.50;2.83;;;;;;;2.41;100.00;97907.72;5070692;28;20029;-85
2022/01/08 04:44:19;;;;;;;13.10;2.97;;;;;;;2.32;100.00;97893.19;5079731;28;20557;-87
2022/01/08 04:46:45;;;;;;;11.80;3.20;;;;;;;2.36;100.00;97875.53;5069939;28;20052;-86
2022/01/08 04:49:11;;;;;;;17.45;3.60;;;;;;;2.31;100.00;97886.38;5072003;28;20081;-85
2022/01/08 04:51:37;;;;;;;13.48;4.20;;;;;;;2.28;100.00;97876.38;5067623;28;20029;-85
2022/01/08 04:54:03;;;;;;;9.77;3.75;;;;;;;2.31;100.00;97891.56;5078144;28;20028;-85
2022/01/08 04:56:29;;;;;;;9.65;3.78;;;;;;;2.33;100.00;97878.47;5053685;28;20025;-84
2022/01/08 04:58:55;;;;;;;10.15;3.75;;;;;;;2.41;100.00;97881.81;5052309;28;20032;-86
2022/01/08 05:01:21;;;;;;;10.60;4.57;;;;;;;2.29;100.00;97839.16;5051111;28;20024;-85
2022/01/08 05:03:47;;;;;;;12.95;4.90;;;;;;;2.32;100.00;97831.03;5077949;28;20035;-83
2022/01/08 05:06:12;;;;;;;11.95;5.07;;;;;;;2.32;100.00;97825.84;5067489;28;20040;-86
2022/01/08 05:08:38;;;;;;;13.38;4.97;;;;;;;2.32;100.00;97819.88;5078732;28;20100;-87
2022/01/08 05:11:04;;;;;;;11.80;4.90;;;;;;;2.46;100.00;97829.50;5066646;28;20401;-87
2022/01/08 05:13:30;;;;;;;16.52;5.15;;;;;;;2.44;100.00;97823.66;5078950;28;20041;-86
2022/01/08 05:15:56;;;;;;;15.63;5.93;;;;;;;2.48;100.00;97809.41;5080796;28;20505;-86
2022/01/08 05:18:23;;;;;;;10.23;5.53;;;;;;;2.48;100.00;97803.41;5048592;28;20029;-86
2022/01/08 05:20:56;;;;;;;9.93;5.55;;;;;;;2.48;100.00;97804.25;5068319;28;20550;-87
2022/01/08 05:23:22;;;;;;;12.35;5.32;;;;;;;2.51;100.00;97795.28;5061284;28;20033;-86
2022/01/08 05:25:47;;;;;;;11.18;6.28;;;;;;;2.58;100.00;97798.81;5061144;28;20048;-87
2022/01/08 05:28:13;;;;;;;14.93;6.20;;;;;;;2.55;100.00;97783.59;5049681;28;20062;-85
2022/01/08 05:30:40;;;;;;;13.50;6.32;;;;;;;2.60;100.00;97794.28;5078376;28;20028;-86
2022/01/08 05:33:05;;;;;;;11.00;5.97;;;;;;;2.62;100.00;97774.19;5065555;28;20086;-87
2022/01/08 05:35:31;;;;;;;16.23;6.90;;;;;;;2.59;100.00;97774.53;5071066;28;20032;-86
2022/01/08 05:37:57;;;;;;;18.42;6.47;;;;;;;2.66;100.00;97775.44;5071195;28;20060;-86
2022/01/08 05:40:23;;;;;;;20.13;8.10;;;;;;;2.65;100.00;97755.69;5056245;28;20037;-86
2022/01/08 05:42:49;;;;;;;15.40;7.45;;;;;;;2.58;100.00;97741.84;5079344;28;20042;-86
2022/01/08 05:45:14;;;;;;;19.63;8.23;;;;;;;2.72;100.00;97763.56;5080720;28;20035;-88
2022/01/08 05:47:40;;;;;;;15.18;7.20;;;;;;;2.64;100.00;97743.72;5082130;28;20029;-86
2022/01/08 05:50:07;;;;;;;16.80;7.05;;;;;;;2.74;100.00;97743.47;5056682;28;20074;-85
2022/01/08 05:52:32;;;;;;;16.63;8.05;;;;;;;2.66;100.00;97718.44;5073866;28;20028;-86
2022/01/08 05:54:58;;;;;;;17.20;7.28;;;;;;;2.83;100.00;97732.03;5080326;28;20086;-87
2022/01/08 05:57:24;;;;;;;22.63;7.70;;;;;;;2.83;100.00;97718.28;5080206;28;20069;-87
2022/01/08 05:59:49;;;;;;;22.40;7.47;;;;;;;2.83;100.00;97708.69;5070059;28;20031;-87
2022/01/08 06:02:18;;;;;;;20.02;8.10;;;;;;;2.83;100.00;97703.53;5069965;28;20478;-87
2022/01/08 06:04:44;;;;;;;30.38;8.45;;;;;;;2.84;100.00;97699.16;5065571;28;20028;-87
2022/01/08 06:07:09;;;;;;;16.08;7.97;;;;;;;2.80;100.00;97698.69;5051110;28;20403;-85
2022/01/08 06:09:35;;;;;;;22.50;7.80;;;;;;;2.85;100.00;97691.22;5054933;28;20028;-86
2022/01/08 06:12:00;;;;;;;18.58;7.60;;;;;;;2.79;100.00;97657.44;5050319;28;20380;-87
2022/01/08 06:14:26;;;;;;;13.82;7.88;;;;;;;2.81;100.00;97663.22;5055007;28;20471;-88
2022/01/08 06:16:51;;;;;;;27.98;9.25;;;;;;;2.83;100.00;97653.50;5050608;28;20732;-86
2022/01/08 06:19:18;;;;;;;17.65;8.57;;;;;;;2.81;100.00;97645.09;5048963;28;20025;-88
2022/01/08 06:21:44;;;;;;;17.02;8.32;;;;;;;2.83;100.00;97636.13;5049765;28;20124;-85
2022/01/08 06:24:10;;;;;;;21.50;9.32;;;;;;;2.92;100.00;97634.25;5042233;28;20528;-85
2022/01/08 06:26:36;;;;;;;24.10;9.38;;;;;;;2.81;100.00;97630.34;5045890;28;20037;-86
2022/01/08 06:29:01;;;;;;;23.38;10.77;;;;;;;2.91;100.00;97622.28;5046951;28;20037;-86
2022/01/08 06:31:28;;;;;;;31.67;12.20;;;;;;;2.75;100.00;97597.38;5044112;28;20036;-85
2022/01/08 06:33:54;;;;;;;24.52;11.35;;;;;;;2.95;100.00;97604.59;5030118;28;20479;-87
2022/01/08 06:36:23;;;;;;;27.63;12.23;;;;;;;3.07;100.00;97599.75;5046671;28;20037;-87
2022/01/08 06:38:52;;;;;;;27.20;12.45;;;;;;;2.93;100.00;97572.88;5032760;28;20082;-86
2022/01/08 06:41:18;;;;;;;31.80;13.18;;;;;;;3.06;100.00;97587.78;5028068;28;20055;-87
2022/01/08 06:43:44;;;;;;;27.02;12.98;;;;;;;3.04;100.00;97558.63;5049486;28;20096;-89
2022/01/08 06:46:13;;;;;;;25.25;12.68;;;;;;;2.97;100.00;97549.00;5048891;28;20063;-88
2022/01/08 06:48:40;;;;;;;32.03;13.63;;;;;;;3.04;100.00;97540.50;5045823;28;20029;-85
2022/01/08 06:51:06;;;;;;;34.63;14.18;;;;;;;3.06;100.00;97520.38;5043087;28;20060;-86
2022/01/08 06:53:31;;;;;;;30.00;14.73;;;;;;;2.96;100.00;97492.97;5052037;28;20094;-88
2022/01/08 06:55:57;;;;;;;32.72;14.70;;;;;;;3.16;100.00;97515.69;5049575;28;20057;-89
2022/01/08 06:58:25;;;;;;;50.45;16.45;;;;;;;3.18;100.00;97499.94;5050167;28;20024;-89
2022/01/08 07:00:51;;;;;;;111.13;23.05;;;;;;;3.13;100.00;97501.31;5050792;28;20056;-88
2022/01/08 07:03:16;;;;;;;329.02;35.80;;;;;;;3.13;100.00;97500.50;5029646;28;20045;-87
2022/01/08 07:05:42;;;;;;;182.43;27.92;;;;;;;2.98;100.00;97457.28;5029323;28;20037;-85
2022/01/08 07:08:10;;;;;;;48.92;19.88;;;;;;;3.26;100.00;97476.50;5061702;28;20052;-86
2022/01/08 07:10:36;;;;;;;90.50;26.13;;;;;;;3.06;100.00;97452.97;5060290;28;20033;-88
2022/01/08 07:13:02;;;;;;;84.70;26.55;;;;;;;3.08;100.00;97438.03;5050245;28;20025;-87
2022/01/08 07:15:28;;;;;;;49.45;22.48;;;;;;;3.21;100.00;97448.53;5062886;28;20039;-87
2022/01/08 07:17:54;;;;;;;83.18;24.77;;;;;;;3.05;100.00;97425.44;5048844;28;20070;-85
2022/01/08 07:20:19;;;;;;;44.97;23.75;;;;;;;3.19;100.00;97426.34;5065648;28;20033;-88
2022/01/08 07:22:45;;;;;;;55.70;23.00;;;;;;;3.13;100.00;97425.31;5063789;28;20059;-87
2022/01/08 07:25:11;;;;;;;53.63;23.02;;;;;;;3.24;100.00;97440.38;5069488;28;20037;-86
2022/01/08 07:27:37;;;;;;;49.45;23.58;;;;;;;3.18;100.00;97425.56;5062461;28;20021;-87
2022/01/08 07:30:05;;;;;;;50.05;23.08;;;;;;;3.29;100.00;97411.28;5066019;28;20385;-84
2022/01/08 07:32:31;;;;;;;121.85;31.52;;;;;;;3.39;100.00;97421.34;5068795;28;20096;-86
2022/01/08 07:34:57;;;;;;;50.15;22.98;;;;;;;3.32;100.00;97404.91;5069655;28;20035;-87
2022/01/08 07:37:22;;;;;;;54.67;23.23;;;;;;;3.31;100.00;97383.38;5052599;28;20025;-88
2022/01/08 07:39:48;;;;;;;58.20;24.98;;;;;;;3.39;100.00;97388.41;5051334;28;20037;-88
2022/01/08 07:42:13;;;;;;;56.35;23.10;;;;;;;3.31;100.00;97372.19;5067194;28;20103;-88
2022/01/08 07:44:39;;;;;;;53.83;23.58;;;;;;;3.43;100.00;97365.50;5066364;28;20367;-84
2022/01/08 07:47:06;;;;;;;51.28;21.40;;;;;;;3.43;100.00;97361.09;5062716;28;20044;-86
2022/01/08 07:49:32;;;;;;;44.83;21.23;;;;;;;3.36;100.00;97325.75;5068919;28;20033;-87
2022/01/08 07:51:58;;;;;;;48.17;21.48;;;;;;;3.46;100.00;97331.38;5052561;28;20127;-86
2022/01/08 07:54:25;;;;;;;38.80;20.17;;;;;;;3.56;100.00;97339.63;5048295;28;20040;-87
2022/01/08 07:56:51;;;;;;;48.60;23.88;;;;;;;3.55;100.00;97319.06;5071498;28;20017;-86
2022/01/08 07:59:16;;;;;;;47.58;21.80;;;;;;;3.59;100.00;97314.31;5067737;28;20044;-87
2022/01/08 08:01:42;;;;;;;48.10;22.02;;;;;;;3.55;100.00;97298.31;5064966;28;20467;-86
2022/01/08 08:04:08;;;;;;;45.88;21.63;;;;;;;3.61;100.00;97300.13;5061200;28;20060;-85
2022/01/08 08:06:36;;;;;;;52.50;22.38;;;;;;;3.77;100.00;97298.22;5063877;28;20562;-88
2022/01/08 08:09:03;;;;;;;46.92;23.58;;;;;;;3.84;100.00;97294.66;5070542;28;20082;-86
2022/01/08 08:11:28;;;;;;;51.20;24.85;;;;;;;3.75;100.00;97271.66;5074904;28;20379;-87
2022/01/08 08:13:54;;;;;;;41.47;20.50;;;;;;;3.89;100.00;97291.47;5066114;28;20036;-85
2022/01/08 08:16:20;;;;;;;92.30;25.55;;;;;;;3.91;100.00;97281.69;5064001;28;20101;-86
2022/01/08 08:18:46;;;;;;;39.53;19.80;;;;;;;3.98;100.00;97268.75;5050775;28;20422;-85
2022/01/08 08:21:11;;;;;;;96.53;31.45;;;;;;;4.01;100.00;97265.75;5072983;28;20021;-86
2022/01/08 08:23:38;;;;;;;82.22;34.25;;;;;;;4.08;100.00;97260.56;5066834;28;20028;-86
2022/01/08 08:26:04;;;;;;;71.45;30.63;;;;;;;4.16;100.00;97244.00;5047627;28;20025;-89
2022/01/08 08:28:30;;;;;;;278.50;43.70;;;;;;;4.19;100.00;97246.22;5050281;28;20070;-87
2022/01/08 08:30:56;;;;;;;60.55;26.38;;;;;;;4.08;100.00;97219.03;5069281;28;20033;-87
2022/01/08 08:33:22;;;;;;;59.92;27.40;;;;;;;4.20;100.00;97222.63;5064124;28;20071;-88
2022/01/08 08:35:47;;;;;;;48.95;25.40;;;;;;;4.28;100.00;97216.44;5060566;28;20032;-87
2022/01/08 08:38:13;;;;;;;51.25;24.75;;;;;;;4.12;100.00;97207.25;5076742;28;20020;-87
2022/01/08 08:40:39;;;;;;;46.38;23.65;;;;;;;4.23;100.00;97195.47;5060543;28;20485;-85
2022/01/08 08:43:05;;;;;;;42.28;23.45;;;;;;;4.29;100.00;97189.47;5048361;28;20029;-86
2022/01/08 08:45:31;;;;;;;42.67;22.38;;;;;;;4.47;100.00;97193.25;5067602;28;20024;-87
2022/01/08 08:47:57;;;;;;;70.13;23.73;;;;;;;4.34;100.00;97168.91;5053952;28;21226;-88
2022/01/08 08:50:24;;;;;;;185.07;33.95;;;;;;;4.40;100.00;97159.50;5070969;28;20080;-89
2022/01/08 08:52:50;;;;;;;60.67;25.95;;;;;;;4.48;100.00;97163.69;5069735;28;20036;-86
2022/01/08 08:55:18;;;;;;;53.97;24.98;;;;;;;4.57;100.00;97162.50;5077315;28;20039;-87
2022/01/08 08:57:44;;;;;;;120.13;29.77;;;;;;;4.56;100.00;97150.50;5077780;28;20025;-89
2022/01/08 09:00:12;;;;;;;57.38;27.90;;;;;;;4.68;100.00;97143.66;5048642;28;20441;-87
2022/01/08 09:02:38;;;;;;;69.80;27.63;;;;;;;4.71;100.00;97143.25;5079362;28;20195;-89
2022/01/08 09:05:05;;;;;;;51.42;25.35;;;;;;;4.79;100.00;97133.66;5059560;28;20035;-86
2022/01/08 09:07:33;;;;;;;61.38;26.65;;;;;;;4.69;100.00;97108.09;5043067;28;20071;-84
2022/01/08 09:09:59;;;;;;;65.13;25.33;;;;;;;4.78;100.00;97116.47;5038847;28;20041;-88
2022/01/08 09:12:24;;;;;;;88.78;24.95;;;;;;;4.79;100.00;97092.84;5073404;28;20028;-87
2022/01/08 09:14:50;;;;;;;30.58;18.27;;;;;;;4.94;100.00;97105.63;5075255;28;20492;-85
2022/01/08 09:17:17;;;;;;;33.65;18.92;;;;;;;4.91;100.00;97080.00;5069290;28;20093;-86
2022/01/08 09:19:43;;;;;;;117.00;26.83;;;;;;;5.03;100.00;97082.78;5068760;28;20120;-84
2022/01/08 09:22:09;;;;;;;33.95;17.85;;;;;;;5.08;100.00;97069.13;5075912;28;20469;-84
2022/01/08 09:24:36;;;;;;;32.88;16.05;;;;;;;5.14;100.00;97068.31;5063565;28;20470;-85
2022/01/08 09:27:05;;;;;;;23.80;13.02;;;;;;;5.11;100.00;97037.50;5074779;28;20119;-88
2022/01/08 09:29:30;;;;;;;26.80;13.68;;;;;;;5.15;100.00;97046.50;5064152;28;20032;-86
2022/01/08 09:31:56;;;;;;;23.33;14.68;;;;;;;5.26;100.00;97032.81;5074890;28;20048;-86
2022/01/08 09:34:22;;;;;;;19.05;10.60;;;;;;;5.31;100.00;97016.59;5075584;28;20038;-83
2022/01/08 09:36:48;;;;;;;16.63;9.98;;;;;;;5.35;100.00;97007.34;5067916;28;20043;-85
2022/01/08 09:39:14;;;;;;;20.38;11.73;;;;;;;5.28;100.00;96996.22;5066106;28;20025;-85
2022/01/08 09:41:40;;;;;;;19.48;12.48;;;;;;;5.35;100.00;96990.97;5065617;28;20051;-86
2022/01/08 09:44:06;;;;;;;19.08;9.93;;;;;;;5.45;100.00;96993.88;5081638;28;20036;-85
2022/01/08 09:46:31;;;;;;;15.32;9.68;;;;;;;5.47;100.00;96975.47;5084965;28;20086;-84
2022/01/08 09:48:57;;;;;;;28.02;13.65;;;;;;;5.50;100.00;96970.63;5075297;28;20056;-86
2022/01/08 09:51:23;;;;;;;17.27;9.32;;;;;;;5.50;100.00;96957.63;5076269;28;20040;-87
2022/01/08 09:53:48;;;;;;;12.07;7.90;;;;;;;5.55;100.00;96970.78;5075781;28;20025;-85
2022/01/08 09:56:14;;;;;;;11.27;8.15;;;;;;;5.67;100.00;96957.06;5076215;28;20048;-85
2022/01/08 09:58:40;;;;;;;12.90;8.20;;;;;;;5.71;100.00;96947.84;5074488;28;20009;-85
2022/01/08 10:01:28;;;;;;;11.63;7.80;;;;;;;5.76;100.00;96940.16;5075708;28;20032;-82
2022/01/08 10:04:00;;;;;;;10.55;7.10;;;;;;;5.83;100.00;96938.28;5073843;28;20041;-87
2022/01/08 10:06:36;;;;;;;10.23;6.05;;;;;;;5.89;100.00;96938.44;5074648;28;20107;-84
2022/01/08 10:09:05;;;;;;;22.70;11.55;;;;;;;5.91;100.00;96926.00;5081852;28;20033;-84
2022/01/08 10:11:30;;;;;;;21.27;10.70;;;;;;;5.96;100.00;96913.13;5073887;28;20089;-86
2022/01/08 10:14:06;;;;;;;15.80;7.45;;;;;;;6.02;100.00;96907.06;5074368;28;20229;-84
2022/01/08 10:17:14;;;;;;;13.18;8.38;;;;;;;6.05;100.00;96901.44;5063411;28;20033;-84
2022/01/08 10:19:37;;;;;;;10.35;7.15;;;;;;;6.10;100.00;96906.78;5072287;28;20041;-84
2022/01/08 10:22:15;;;;;;;17.33;8.32;;;;;;;6.12;100.00;96896.94;5047565;28;20029;-87
2022/01/08 10:24:40;;;;;;;12.18;6.68;;;;;;;6.08;100.00;96869.72;5081931;28;20389;-86
2022/01/08 10:27:07;;;;;;;9.82;5.80;;;;;;;6.22;100.00;96861.75;5077394;28;20036;-85
2022/01/08 10:29:34;;;;;;;10.90;6.85;;;;;;;6.32;100.00;96859.44;5077811;28;20429;-88
2022/01/08 10:32:00;;;;;;;6.80;4.80;;;;;;;6.31;100.00;96851.81;5075063;28;20039;-87
2022/01/08 10:34:28;;;;;;;6.90;4.45;;;;;;;6.39;100.00;96847.09;5049972;28;20029;-85
2022/01/08 10:37:14;;;;;;;6.22;4.25;;;;;;;6.48;100.00;96831.13;5067416;28;20085;-89
2022/01/08 10:39:40;;;;;;;14.00;7.50;;;;;;;6.46;100.00;96817.53;5073852;28;20072;-87
2022/01/08 10:42:15;;;;;;;8.52;5.18;;;;;;;6.50;100.00;96803.06;5073549;28;20020;-86
2022/01/08 10:44:42;;;;;;;9.07;5.65;;;;;;;6.70;100.00;96807.97;5071392;28;20046;-84
2022/01/08 10:47:16;;;;;;;7.93;5.28;;;;;;;6.70;100.00;96798.34;5075062;28;20074;-86
2022/01/08 10:50:02;;;;;;;14.20;7.47;;;;;;;6.75;100.00;96800.25;5064372;28;20091;-87
2022/01/08 10:52:39;;;;;;;10.13;5.47;;;;;;;6.90;100.00;96793.81;5055567;28;20088;-86
2022/01/08 10:55:06;;;;;;;9.63;5.63;;;;;;;6.84;100.00;96765.03;5071165;28;20028;-85
2022/01/08 10:57:40;;;;;;;10.48;6.38;;;;;;;6.97;100.00;96761.38;5050128;28;20028;-85
2022/01/08 11:00:09;;;;;;;11.60;6.15;;;;;;;6.97;100.00;96730.09;5065141;28;20046;-86
2022/01/08 11:02:39;;;;;;;9.93;6.43;;;;;;;7.15;100.00;96741.41;5069095;28;20474;-86
2022/01/08 11:05:07;;;;;;;7.90;5.20;;;;;;;7.23;100.00;96733.22;5082131;28;20027;-87
2022/01/08 11:07:34;;;;;;;9.25;4.90;;;;;;;7.36;100.00;96737.38;5076047;28;20036;-85
2022/01/08 11:10:08;;;;;;;7.65;5.22;;;;;;;7.35;100.00;96704.50;5084209;28;20474;-87
2022/01/08 11:12:38;;;;;;;6.72;4.13;;;;;;;7.35;100.00;96711.53;5050823;28;20036;-87
2022/01/08 11:17:44;;;;;;;6.72;4.63;;;;;;;7.69;100.00;96732.56;5082455;28;20025;-85
2022/01/08 11:20:25;;;;;;;6.18;3.55;;;;;;;7.75;100.00;96715.94;5046785;28;20032;-85
2022/01/08 11:22:54;;;;;;;3.97;3.40;;;;;;;7.67;100.00;96695.44;5065338;28;20029;-82
2022/01/08 11:25:30;;;;;;;6.20;3.25;;;;;;;7.53;100.00;96680.06;5077203;28;20040;-89
2022/01/08 11:28:10;;;;;;;4.97;3.28;;;;;;;7.64;100.00;96686.25;5059843;28;20032;-88
2022/01/08 11:30:50;;;;;;;5.40;3.35;;;;;;;7.71;100.00;96694.72;5054269;28;20053;-89
2022/01/08 11:33:21;;;;;;;3.40;2.97;;;;;;;7.51;100.00;96656.00;5072594;28;20442;-87
2022/01/08 11:35:48;;;;;;;4.38;2.63;;;;;;;7.57;100.00;96664.72;5048795;28;20510;-88
2022/01/08 11:38:18;;;;;;;3.08;2.40;;;;;;;7.60;100.00;96643.38;5067391;28;20020;-87
2022/01/08 11:40:47;;;;;;;6.35;2.20;;;;;;;7.65;100.00;96648.66;5070024;28;20028;-87
2022/01/08 11:43:15;;;;;;;2.80;2.00;;;;;;;7.72;100.00;96646.69;5052445;28;20033;-87
2022/01/08 11:45:48;;;;;;;3.22;2.05;;;;;;;7.85;100.00;96666.50;5075885;28;20040;-88